Time;durP1;ratioP1;P1;durP2;ratioP2;P2;SDS_P1;SDS_P2;PMS_P1;PMS_P2;Temp;Humidity;BMP_temperature;BMP_pressure;BME280_temperature;BME280_humidity;BME280_pressure;Samples;Min_cycle;Max_cycle;Signal;HPM_P1;HPM_P2
2023/12/02 00:01:56;;;;;;;2.58;2.38;;;;;;;12.91;72.64;63329.00;5020490;28;20245;-74
2023/12/02 00:04:23;;;;;;;5.38;1.88;;;;;;;12.96;71.92;63334.69;5005897;28;20235;-74
2023/12/02 00:06:50;;;;;;;1.67;1.58;;;;;;;12.97;72.09;63338.31;5005348;28;20250;-74
2023/12/02 00:09:17;;;;;;;10.20;4.30;;;;;;;12.95;71.49;63331.13;5004587;28;20238;-74
2023/12/02 00:11:50;;;;;;;5.50;2.63;;;;;;;12.97;70.93;63335.22;5012747;28;20383;-74
2023/12/02 00:14:16;;;;;;;4.47;2.17;;;;;;;13.01;70.34;63339.88;5021339;28;20234;-75
2023/12/02 00:16:43;;;;;;;3.55;1.60;;;;;;;13.05;69.34;63340.97;5023674;28;20223;-74
2023/12/02 00:19:10;;;;;;;5.22;3.40;;;;;;;13.08;69.54;63344.09;5031051;28;20209;-74
2023/12/02 00:21:37;;;;;;;7.88;2.13;;;;;;;12.98;69.41;63339.34;5024826;28;20246;-75
2023/12/02 00:24:05;;;;;;;5.05;3.10;;;;;;;12.95;69.91;63331.13;5024387;28;20242;-74
2023/12/02 00:26:32;;;;;;;4.75;4.13;;;;;;;12.90;70.92;63333.06;5021799;28;20221;-75
2023/12/02 00:29:00;;;;;;;3.42;3.13;;;;;;;12.82;71.77;63317.13;5018412;28;20206;-74
2023/12/02 00:31:27;;;;;;;2.72;2.30;;;;;;;12.70;72.19;63308.25;5024529;28;20203;-73
2023/12/02 00:33:54;;;;;;;3.55;2.08;;;;;;;12.58;72.50;63293.25;5024754;28;20194;-74
2023/12/02 00:36:21;;;;;;;2.30;2.10;;;;;;;12.47;72.72;63283.91;5015201;28;20430;-74
2023/12/02 00:38:48;;;;;;;3.75;1.90;;;;;;;12.28;72.76;63262.16;5009044;28;20202;-74
2023/12/02 00:41:15;;;;;;;4.32;1.67;;;;;;;12.30;73.63;63266.28;5014144;28;20203;-74
2023/12/02 00:43:41;;;;;;;2.75;1.98;;;;;;;12.27;72.63;63263.16;5018447;28;20221;-75
2023/12/02 00:46:10;;;;;;;1.42;1.40;;;;;;;11.96;74.20;63225.94;5018598;28;20203;-75
2023/12/02 00:48:38;;;;;;;4.53;1.52;;;;;;;11.90;74.91;63222.25;5023692;28;20234;-74
2023/12/02 00:51:05;;;;;;;5.90;1.92;;;;;;;11.82;77.29;63219.59;5024011;28;20201;-74
2023/12/02 00:53:32;;;;;;;2.25;1.92;;;;;;;11.75;77.96;63212.34;5008111;28;20602;-74
2023/12/02 00:55:59;;;;;;;2.38;2.17;;;;;;;11.83;77.09;63215.00;5018187;28;20238;-75
2023/12/02 00:58:26;;;;;;;3.55;1.98;;;;;;;12.01;76.01;63236.72;5018125;28;20619;-74
2023/12/02 01:00:53;;;;;;;2.25;2.00;;;;;;;12.28;75.44;63264.72;5024469;28;20199;-74
2023/12/02 01:03:21;;;;;;;6.70;2.25;;;;;;;12.38;75.85;63279.66;5023373;28;20234;-75
2023/12/02 01:05:48;;;;;;;3.63;2.00;;;;;;;12.49;73.87;63283.91;5021794;28;20233;-74
2023/12/02 01:08:16;;;;;;;3.22;1.92;;;;;;;12.53;73.10;63293.19;5021706;28;20294;-75
2023/12/02 01:10:43;;;;;;;4.55;1.90;;;;;;;12.54;73.19;63288.59;5023646;28;20455;-74
2023/12/02 01:13:09;;;;;;;1.85;1.42;;;;;;;12.51;73.82;63290.59;5021994;28;20230;-73
2023/12/02 01:15:37;;;;;;;2.88;1.50;;;;;;;12.35;73.47;63271.47;5021473;28;20203;-76
2023/12/02 01:18:04;;;;;;;3.22;1.90;;;;;;;12.27;75.29;63261.13;5023059;28;20222;-75
2023/12/02 01:20:32;;;;;;;2.92;1.95;;;;;;;12.34;75.88;63267.84;5023836;28;20226;-75
2023/12/02 01:23:00;;;;;;;3.20;1.92;;;;;;;12.58;74.85;63295.81;5021548;28;20226;-75
2023/12/02 01:25:27;;;;;;;5.10;2.72;;;;;;;12.52;75.13;63283.97;5013423;28;20245;-74
2023/12/02 01:27:54;;;;;;;2.22;2.10;;;;;;;12.37;74.01;63271.47;5024006;28;20595;-74
2023/12/02 01:30:21;;;;;;;3.58;1.90;;;;;;;12.12;75.44;63248.13;5021303;28;20226;-74
2023/12/02 01:32:48;;;;;;;3.67;1.95;;;;;;;11.92;77.39;63227.41;5020444;28;20228;-74
2023/12/02 01:35:15;;;;;;;4.22;2.05;;;;;;;11.79;79.74;63213.94;5023551;28;20205;-75
2023/12/02 01:37:44;;;;;;;3.30;2.13;;;;;;;11.74;78.93;63208.22;5023156;28;20234;-74
2023/12/02 01:40:12;;;;;;;4.00;2.35;;;;;;;11.69;81.60;63201.03;5006422;28;20231;-73
2023/12/02 01:42:39;;;;;;;1.67;1.58;;;;;;;11.70;82.21;63204.59;5022162;28;20227;-74
2023/12/02 01:45:07;;;;;;;5.97;2.60;;;;;;;11.76;83.35;63213.38;5021492;28;20318;-74
2023/12/02 01:47:34;;;;;;;5.90;1.88;;;;;;;11.71;84.03;63203.09;5023028;28;20230;-74
2023/12/02 01:50:01;;;;;;;6.95;2.47;;;;;;;11.63;83.12;63202.44;5021264;28;20441;-73
2023/12/02 01:52:29;;;;;;;3.97;2.13;;;;;;;11.59;84.17;63193.72;5021970;28;20235;-74
2023/12/02 01:54:57;;;;;;;4.28;2.08;;;;;;;11.55;85.34;63186.50;5012785;28;20393;-74
2023/12/02 01:57:24;;;;;;;8.48;2.42;;;;;;;11.57;85.05;63193.66;5003275;28;20473;-75
2023/12/02 01:59:54;;;;;;;5.05;2.08;;;;;;;11.54;84.21;63185.97;5017414;28;20206;-75
2023/12/02 02:02:21;;;;;;;3.35;1.85;;;;;;;11.56;83.51;63195.69;5011089;28;20249;-74
2023/12/02 02:04:49;;;;;;;5.95;2.58;;;;;;;11.41;83.02;63175.06;5015205;28;20230;-74
2023/12/02 02:07:16;;;;;;;2.25;1.80;;;;;;;11.45;83.05;63181.25;5024546;28;20585;-75
2023/12/02 02:09:46;;;;;;;2.30;2.08;;;;;;;11.33;86.11;63166.25;5023733;28;20202;-74
2023/12/02 02:12:15;;;;;;;4.05;2.38;;;;;;;11.35;89.26;63165.78;5026904;28;20225;-74
2023/12/02 02:14:43;;;;;;;3.55;1.67;;;;;;;11.34;92.84;63164.75;5009763;28;20235;-73
2023/12/02 02:17:10;;;;;;;3.92;2.92;;;;;;;11.29;92.37;63162.63;5022952;28;20231;-74
2023/12/02 02:19:36;;;;;;;6.65;2.45;;;;;;;11.21;91.57;63158.94;5027057;28;20233;-74
2023/12/02 02:22:05;;;;;;;3.05;2.15;;;;;;;11.17;96.80;63147.66;5026100;28;20233;-75
2023/12/02 02:24:32;;;;;;;3.55;2.20;;;;;;;11.31;96.75;63164.19;5024305;28;20236;-74
2023/12/02 02:26:59;;;;;;;3.58;2.38;;;;;;;10.97;94.41;63124.41;5024763;28;20242;-74
2023/12/02 02:29:25;;;;;;;4.80;2.58;;;;;;;10.83;95.71;63117.56;5026244;28;20202;-74
2023/12/02 02:31:52;;;;;;;3.15;2.20;;;;;;;10.84;97.99;63118.06;5023533;28;20223;-75
2023/12/02 02:34:19;;;;;;;4.25;2.47;;;;;;;10.81;100.00;63110.38;5025715;28;20250;-74
2023/12/02 02:36:46;;;;;;;5.00;1.65;;;;;;;10.83;100.00;63114.47;5024548;28;20262;-74
2023/12/02 02:39:15;;;;;;;2.45;1.88;;;;;;;10.90;100.00;63124.28;5024801;28;20246;-75
2023/12/02 02:41:41;;;;;;;5.10;1.85;;;;;;;10.83;100.00;63112.47;5023110;28;20235;-74
2023/12/02 02:44:08;;;;;;;2.20;1.75;;;;;;;10.88;99.15;63120.19;5026228;28;20262;-75
2023/12/02 02:46:35;;;;;;;4.05;1.65;;;;;;;10.98;97.92;63128.00;5023495;28;20223;-74
2023/12/02 02:49:02;;;;;;;4.50;2.33;;;;;;;11.12;96.60;63147.59;5020228;28;20223;-75
2023/12/02 02:51:29;;;;;;;3.33;1.98;;;;;;;11.19;93.35;63154.84;5019130;28;20270;-75
2023/12/02 02:53:56;;;;;;;4.75;1.83;;;;;;;11.21;93.49;63153.84;5026380;28;20209;-74
2023/12/02 02:56:25;;;;;;;10.63;2.17;;;;;;;11.32;94.13;63162.69;5020604;28;20269;-74
2023/12/02 02:58:52;;;;;;;1.83;1.65;;;;;;;11.37;92.99;63170.41;5020353;28;20438;-74
2023/12/02 03:01:18;;;;;;;2.83;1.75;;;;;;;11.38;91.51;63169.41;5025109;28;20202;-73
2023/12/02 03:03:45;;;;;;;2.45;1.80;;;;;;;11.30;92.81;63163.16;5005938;28;20262;-74
2023/12/02 03:06:12;;;;;;;1.52;1.42;;;;;;;11.28;93.55;63156.50;5012790;28;20278;-74
2023/12/02 03:08:39;;;;;;;3.03;1.92;;;;;;;11.30;92.25;63161.13;5023777;28;20210;-74
2023/12/02 03:11:06;;;;;;;3.20;1.58;;;;;;;11.27;93.33;63160.03;5020533;28;20204;-73
2023/12/02 03:13:35;;;;;;;2.47;1.60;;;;;;;11.14;92.77;63144.03;5024924;28;20334;-75
2023/12/02 03:16:01;;;;;;;2.65;1.80;;;;;;;11.05;91.67;63134.72;5022922;28;20384;-75
2023/12/02 03:18:28;;;;;;;4.38;1.98;;;;;;;10.91;91.38;63123.28;5023464;28;20249;-74
2023/12/02 03:20:55;;;;;;;3.88;2.65;;;;;;;10.81;90.33;63114.97;5025799;28;20199;-74
2023/12/02 03:23:22;;;;;;;4.30;1.55;;;;;;;10.74;92.32;63105.16;5025119;28;20226;-74
2023/12/02 03:25:49;;;;;;;4.50;1.85;;;;;;;10.68;95.28;63102.03;5022722;28;20261;-74
2023/12/02 03:28:16;;;;;;;3.63;2.05;;;;;;;11.09;95.78;63138.84;5010697;28;20407;-75
2023/12/02 03:30:45;;;;;;;2.58;1.60;;;;;;;11.09;95.07;63141.41;5023912;28;20506;-74
2023/12/02 03:33:12;;;;;;;2.88;1.42;;;;;;;11.09;95.61;63136.84;5015257;28;20235;-74
2023/12/02 03:35:39;;;;;;;2.40;1.60;;;;;;;11.06;96.33;63135.75;5021412;28;20215;-74
2023/12/02 03:38:06;;;;;;;4.60;1.67;;;;;;;10.92;94.85;63124.34;5024938;28;20443;-75
2023/12/02 03:40:33;;;;;;;4.55;1.92;;;;;;;10.84;95.38;63112.97;5025220;28;20209;-75
2023/12/02 03:43:00;;;;;;;3.17;1.42;;;;;;;10.86;95.53;63120.13;5021821;28;20223;-75
2023/12/02 03:45:27;;;;;;;4.38;1.88;;;;;;;10.90;96.38;63117.16;5024148;28;20234;-74
2023/12/02 03:47:55;;;;;;;3.85;2.00;;;;;;;10.92;94.25;63123.81;5022733;28;20242;-75
2023/12/02 03:50:22;;;;;;;6.70;2.33;;;;;;;10.83;94.69;63112.47;5007697;28;20233;-75
2023/12/02 03:52:49;;;;;;;2.53;1.83;;;;;;;10.83;96.66;63114.47;5022926;28;20230;-74
2023/12/02 03:55:18;;;;;;;7.10;1.83;;;;;;;10.84;97.34;63118.59;5021445;28;20198;-74
2023/12/02 03:57:45;;;;;;;5.32;2.38;;;;;;;11.01;95.16;63128.53;5012677;28;20298;-74
2023/12/02 04:00:14;;;;;;;3.22;1.83;;;;;;;11.08;94.82;63135.78;5004718;28;20440;-74
2023/12/02 04:02:41;;;;;;;8.23;2.25;;;;;;;11.10;95.47;63137.34;5018021;28;20230;-75
2023/12/02 04:05:13;;;;;;;5.05;2.85;;;;;;;11.15;94.65;63150.16;5024487;28;20236;-75
2023/12/02 04:07:41;;;;;;;1.77;1.67;;;;;;;11.23;93.14;63158.97;5023819;28;20219;-76
2023/12/02 04:10:09;;;;;;;4.63;1.52;;;;;;;11.43;91.68;63177.13;5018999;28;20289;-74
2023/12/02 04:12:36;;;;;;;3.17;1.30;;;;;;;11.38;90.68;63168.88;5013770;28;20219;-75
2023/12/02 04:15:04;;;;;;;2.65;1.73;;;;;;;11.36;90.11;63169.38;5023603;28;20210;-74
2023/12/02 04:17:31;;;;;;;3.42;1.40;;;;;;;11.31;90.09;63159.09;5021388;28;20454;-74
2023/12/02 04:19:58;;;;;;;4.35;1.65;;;;;;;11.27;89.14;63158.00;5020945;28;20220;-75
2023/12/02 04:22:26;;;;;;;2.22;1.38;;;;;;;11.27;90.07;63158.00;5022582;28;20246;-75
2023/12/02 04:24:53;;;;;;;3.08;1.50;;;;;;;11.20;89.86;63155.84;5024020;28;20214;-74
2023/12/02 04:27:21;;;;;;;4.22;1.98;;;;;;;11.16;89.75;63146.63;5010922;28;20298;-75
2023/12/02 04:29:50;;;;;;;5.90;1.88;;;;;;;11.06;90.14;63136.25;5004491;28;20227;-74
2023/12/02 04:32:17;;;;;;;7.25;1.92;;;;;;;11.07;90.28;63142.41;5007627;28;20227;-74
2023/12/02 04:34:44;;;;;;;4.60;1.90;;;;;;;11.01;90.05;63133.63;5023605;28;20194;-75
2023/12/02 04:37:12;;;;;;;4.47;2.20;;;;;;;11.06;89.45;63140.84;5024758;28;20226;-74
2023/12/02 04:39:41;;;;;;;4.00;1.73;;;;;;;11.10;88.66;63142.97;5024534;28;20203;-76
2023/12/02 04:42:08;;;;;;;3.22;1.95;;;;;;;11.09;88.54;63136.84;5014231;28;20241;-75
2023/12/02 04:44:36;;;;;;;4.88;1.92;;;;;;;11.01;89.72;63131.09;5004450;28;20479;-75
2023/12/02 04:47:03;;;;;;;4.78;2.20;;;;;;;11.00;90.49;63132.59;5004109;28;20239;-75
2023/12/02 04:49:30;;;;;;;2.30;2.10;;;;;;;11.04;89.48;63138.78;5020059;28;20215;-75
2023/12/02 04:51:57;;;;;;;4.90;2.17;;;;;;;11.12;88.37;63147.59;5023996;28;20289;-76
2023/12/02 04:54:23;;;;;;;2.03;1.80;;;;;;;11.18;86.31;63148.69;5024439;28;20198;-75
2023/12/02 04:56:52;;;;;;;2.90;2.70;;;;;;;11.22;85.69;63154.88;5018156;28;20531;-74
2023/12/02 04:59:18;;;;;;;6.15;2.28;;;;;;;11.17;86.68;63147.13;5019181;28;20206;-75
2023/12/02 05:01:45;;;;;;;2.97;2.17;;;;;;;11.19;86.01;63149.75;5024496;28;20533;-75
2023/12/02 05:04:12;;;;;;;6.97;2.40;;;;;;;11.18;86.81;63148.19;5023414;28;20266;-75
2023/12/02 05:06:41;;;;;;;4.32;2.05;;;;;;;11.19;85.48;63154.31;5021574;28;20293;-75
2023/12/02 05:09:08;;;;;;;5.30;1.80;;;;;;;11.10;85.59;63142.44;5020496;28;20202;-74
2023/12/02 05:11:35;;;;;;;1.92;1.67;;;;;;;11.12;84.65;63145.03;5022236;28;20226;-75
2023/12/02 05:14:03;;;;;;;4.10;1.65;;;;;;;11.09;84.87;63144.47;5019733;28;20234;-74
2023/12/02 05:16:30;;;;;;;5.00;1.90;;;;;;;11.18;83.93;63148.19;5019560;28;20214;-74
2023/12/02 05:18:57;;;;;;;5.57;1.25;;;;;;;11.00;85.77;63132.09;5021391;28;20199;-75
2023/12/02 05:21:24;;;;;;;3.67;1.65;;;;;;;10.95;86.81;63119.78;5019581;28;20206;-74
2023/12/02 05:23:51;;;;;;;1.90;1.80;;;;;;;10.93;87.20;63127.91;5023444;28;20511;-73
2023/12/02 05:26:18;;;;;;;2.25;1.17;;;;;;;10.90;85.59;63119.72;5021363;28;20234;-76
2023/12/02 05:28:45;;;;;;;3.25;1.70;;;;;;;11.05;83.19;63139.81;5012453;28;20203;-75
2023/12/02 05:31:13;;;;;;;4.15;1.60;;;;;;;11.15;82.20;63148.13;5018359;28;20518;-74
2023/12/02 05:33:40;;;;;;;4.35;1.50;;;;;;;11.06;84.58;63138.31;5023439;28;20214;-74
2023/12/02 05:36:10;;;;;;;1.63;1.52;;;;;;;11.12;84.62;63142.47;5024183;28;20206;-74
2023/12/02 05:38:37;;;;;;;4.68;1.88;;;;;;;11.16;88.09;63151.22;5012391;28;20433;-74
2023/12/02 05:41:04;;;;;;;2.90;2.63;;;;;;;11.12;90.10;63139.41;5023986;28;20215;-76
2023/12/02 05:43:31;;;;;;;7.10;1.65;;;;;;;11.15;91.92;63148.13;5019125;28;20394;-75
2023/12/02 05:45:58;;;;;;;4.32;1.75;;;;;;;11.11;92.58;63143.47;5025713;28;20233;-75
2023/12/02 05:48:26;;;;;;;6.05;1.83;;;;;;;11.11;91.97;63146.53;5026836;28;20237;-74
2023/12/02 05:50:53;;;;;;;4.53;1.70;;;;;;;11.14;93.46;63147.09;5023967;28;20230;-75
2023/12/02 05:53:20;;;;;;;8.07;2.15;;;;;;;11.15;93.06;63148.13;5027146;28;20218;-74
2023/12/02 05:55:48;;;;;;;1.83;1.73;;;;;;;11.19;92.78;63151.75;5010904;28;20223;-75
2023/12/02 05:58:15;;;;;;;5.10;1.60;;;;;;;11.01;92.81;63130.59;5015778;28;20227;-75
2023/12/02 06:00:42;;;;;;;2.13;1.92;;;;;;;10.95;93.59;63124.88;5020744;28;20199;-75
2023/12/02 06:03:09;;;;;;;4.00;2.17;;;;;;;10.95;94.09;63126.91;5025460;28;20214;-74
2023/12/02 06:05:38;;;;;;;4.10;1.73;;;;;;;10.99;95.44;63131.56;5020566;28;20732;-74
2023/12/02 06:08:05;;;;;;;2.75;1.92;;;;;;;11.20;93.32;63152.81;5026091;28;20219;-74
2023/12/02 06:10:32;;;;;;;2.88;1.48;;;;;;;11.23;95.03;63153.88;5020596;28;20206;-75
2023/12/02 06:12:59;;;;;;;2.78;1.92;;;;;;;11.29;94.29;63164.66;5025252;28;20214;-74
2023/12/02 06:15:26;;;;;;;3.70;1.73;;;;;;;11.39;92.99;63177.56;5019769;28;20205;-73
2023/12/02 06:17:56;;;;;;;2.95;1.80;;;;;;;11.52;90.60;63185.94;5022181;28;20218;-75
2023/12/02 06:20:24;;;;;;;2.90;1.63;;;;;;;11.59;90.43;63193.72;5023768;28;20191;-76
2023/12/02 06:22:52;;;;;;;3.67;2.00;;;;;;;11.69;90.95;63205.59;5022186;28;20290;-74
2023/12/02 06:25:19;;;;;;;5.60;2.10;;;;;;;11.65;90.26;63196.38;5021480;28;20238;-75
2023/12/02 06:27:46;;;;;;;4.47;1.65;;;;;;;11.71;87.22;63205.13;5022017;28;20231;-75
2023/12/02 06:30:15;;;;;;;3.53;1.55;;;;;;;11.78;87.03;63204.72;5025649;28;20575;-75
2023/12/02 06:32:42;;;;;;;5.70;2.33;;;;;;;11.72;87.56;63203.63;5024326;28;20535;-75
2023/12/02 06:35:09;;;;;;;5.75;2.00;;;;;;;11.72;86.13;63206.16;5025469;28;20205;-75
2023/12/02 06:37:36;;;;;;;7.93;1.98;;;;;;;11.67;85.15;63206.06;5023521;28;20231;-76
2023/12/02 06:40:05;;;;;;;2.83;1.67;;;;;;;11.74;83.89;63206.19;5021186;28;20203;-74
2023/12/02 06:42:32;;;;;;;2.15;1.92;;;;;;;11.85;82.47;63219.63;5021947;28;20244;-76
2023/12/02 06:45:00;;;;;;;6.03;1.95;;;;;;;11.88;82.24;63220.19;5023579;28;20199;-76
2023/12/02 06:47:27;;;;;;;2.55;1.65;;;;;;;11.87;82.88;63222.22;5023420;28;20717;-77
2023/12/02 06:49:54;;;;;;;2.20;1.92;;;;;;;11.81;84.38;63215.47;5025174;28;20195;-75
2023/12/02 06:52:21;;;;;;;1.90;1.80;;;;;;;11.77;83.35;63208.81;5023004;28;20229;-74
2023/12/02 06:54:48;;;;;;;4.43;2.38;;;;;;;11.75;83.36;63209.81;5025576;28;20697;-77
2023/12/02 06:57:16;;;;;;;4.97;2.38;;;;;;;11.74;83.18;63208.75;5022187;28;20230;-75
2023/12/02 06:59:45;;;;;;;3.50;2.15;;;;;;;11.82;80.95;63213.97;5025702;28;20199;-76
2023/12/02 07:02:12;;;;;;;5.65;2.85;;;;;;;11.85;81.46;63219.63;5020310;28;20218;-78
2023/12/02 07:04:39;;;;;;;1.90;1.75;;;;;;;11.87;82.08;63217.13;5026406;28;20194;-78
2023/12/02 07:07:06;;;;;;;3.63;2.38;;;;;;;11.93;79.65;63230.47;5023014;28;21185;-78
2023/12/02 07:09:33;;;;;;;3.63;1.70;;;;;;;11.86;79.38;63221.19;5021983;28;20206;-78
2023/12/02 07:12:00;;;;;;;5.28;2.85;;;;;;;11.91;79.11;63225.84;5023171;28;20222;-79
2023/12/02 07:14:28;;;;;;;4.40;2.67;;;;;;;11.94;79.31;63226.41;5025366;28;20236;-78
2023/12/02 07:16:55;;;;;;;2.08;1.95;;;;;;;11.93;79.12;63227.91;5023282;28;20289;-77
2023/12/02 07:19:22;;;;;;;5.95;2.15;;;;;;;11.92;80.14;63227.41;5021792;28;20399;-77
2023/12/02 07:21:50;;;;;;;4.90;2.20;;;;;;;12.00;78.53;63230.06;5025516;28;20223;-77
2023/12/02 07:24:17;;;;;;;4.95;2.65;;;;;;;11.79;79.67;63213.41;5020532;28;20199;-77
2023/12/02 07:26:44;;;;;;;5.78;2.88;;;;;;;11.56;83.12;63193.16;5025241;28;20234;-77
2023/12/02 07:29:11;;;;;;;4.22;2.58;;;;;;;11.61;nan;63197.81;5019734;28;20213;-74
2023/12/02 07:31:39;;;;;;;3.95;2.30;;;;;;;11.55;82.90;63189.03;5023290;28;20267;-75
2023/12/02 07:34:06;;;;;;;3.45;2.47;;;;;;;11.58;83.76;63192.66;5023284;28;20217;-74
2023/12/02 07:36:33;;;;;;;2.38;2.17;;;;;;;11.62;83.62;63199.38;5021952;28;20207;-75
2023/12/02 07:39:00;;;;;;;2.38;1.73;;;;;;;11.68;81.41;63199.47;5021359;28;20210;-75
2023/12/02 07:41:27;;;;;;;5.53;1.90;;;;;;;11.67;80.88;63201.50;5018395;28;20209;-75
2023/12/02 07:43:54;;;;;;;6.00;1.60;;;;;;;11.88;77.53;63223.25;5021907;28;20202;-76
2023/12/02 07:46:21;;;;;;;2.90;1.98;;;;;;;12.06;75.37;63243.94;5022497;28;20245;-76
2023/12/02 07:48:49;;;;;;;3.53;2.10;;;;;;;12.27;74.63;63260.63;5018777;28;20391;-75
2023/12/02 07:51:16;;;;;;;4.15;1.40;;;;;;;12.31;75.15;63269.84;5021149;28;20198;-75
2023/12/02 07:53:43;;;;;;;6.45;2.00;;;;;;;12.44;73.20;63281.28;5023367;28;20206;-76
2023/12/02 07:56:11;;;;;;;7.40;1.67;;;;;;;12.47;72.84;63284.41;5020263;28;20274;-75
2023/12/02 07:58:37;;;;;;;3.15;1.85;;;;;;;12.56;73.09;63293.22;5022751;28;20229;-75
2023/12/02 08:01:05;;;;;;;2.08;1.88;;;;;;;12.57;73.12;63292.22;5022844;28;20514;-78
2023/12/02 08:03:32;;;;;;;3.35;1.75;;;;;;;12.57;73.66;63292.22;5022693;28;20214;-76
2023/12/02 08:06:00;;;;;;;2.30;2.10;;;;;;;12.58;71.85;63300.91;5019690;28;20211;-76
2023/12/02 08:08:27;;;;;;;2.03;1.60;;;;;;;12.60;70.69;63300.44;5022428;28;20222;-76
2023/12/02 08:10:55;;;;;;;6.75;1.90;;;;;;;12.63;71.06;63298.44;5025201;28;20203;-76
2023/12/02 08:13:22;;;;;;;3.90;1.80;;;;;;;12.65;69.45;63300.00;5016721;28;20223;-76
2023/12/02 08:15:49;;;;;;;2.17;1.80;;;;;;;12.70;68.31;63308.25;5025057;28;20208;-75
2023/12/02 08:18:18;;;;;;;1.92;1.77;;;;;;;12.65;69.12;63307.66;5023970;28;20222;-77
2023/12/02 08:20:46;;;;;;;3.08;1.60;;;;;;;12.59;70.62;63296.34;5024658;28;20199;-75
2023/12/02 08:23:15;;;;;;;2.40;1.88;;;;;;;12.58;69.06;63295.81;5022676;28;20218;-76
2023/12/02 08:25:42;;;;;;;3.25;2.63;;;;;;;12.62;70.21;63299.44;5024608;28;20199;-76
2023/12/02 08:28:09;;;;;;;2.92;1.83;;;;;;;12.57;70.95;63291.69;5007994;28;20417;-77
2023/12/02 08:30:36;;;;;;;4.60;1.98;;;;;;;12.60;69.83;63299.91;5014517;28;20207;-76
2023/12/02 08:33:03;;;;;;;3.13;2.10;;;;;;;12.52;69.53;63289.59;5021159;28;20222;-76
2023/12/02 08:35:31;;;;;;;3.75;1.92;;;;;;;12.53;70.86;63293.19;5023814;28;20207;-76
2023/12/02 08:37:58;;;;;;;2.33;2.00;;;;;;;12.51;69.54;63291.09;5023191;28;20423;-76
2023/12/02 08:40:26;;;;;;;5.15;2.15;;;;;;;12.57;69.25;63294.25;5024794;28;20263;-78
2023/12/02 08:42:53;;;;;;;3.00;2.50;;;;;;;12.58;68.28;63292.75;5025433;28;20246;-79
2023/12/02 08:45:20;;;;;;;4.10;2.75;;;;;;;12.54;70.76;63291.69;5025637;28;20278;-79
2023/12/02 08:47:47;;;;;;;3.45;2.25;;;;;;;12.53;68.79;63288.06;5026062;28;20252;-80
2023/12/02 08:50:14;;;;;;;2.20;1.80;;;;;;;12.51;68.21;63290.59;5025941;28;20203;-80
2023/12/02 08:52:41;;;;;;;3.67;2.47;;;;;;;12.60;66.48;63294.81;5026086;28;20233;-78
2023/12/02 08:55:09;;;;;;;2.65;2.03;;;;;;;12.66;67.95;63301.56;5024116;28;20210;-79
2023/12/02 08:57:37;;;;;;;3.65;2.40;;;;;;;12.74;66.05;63320.06;5025471;28;20227;-79
2023/12/02 09:00:05;;;;;;;12.93;6.22;;;;;;;12.81;65.34;63319.16;5024851;28;20206;-79
2023/12/02 09:02:32;;;;;;;8.95;7.90;;;;;;;12.96;66.54;63336.75;5025515;28;20249;-78
2023/12/02 09:05:01;;;;;;;12.32;8.00;;;;;;;12.94;66.44;63332.13;5027766;28;20218;-79
2023/12/02 09:07:28;;;;;;;13.43;7.47;;;;;;;13.01;65.90;63336.81;5025741;28;20226;-80
2023/12/02 09:09:55;;;;;;;9.52;7.35;;;;;;;13.14;64.82;63352.88;5026034;28;20210;-79
2023/12/02 09:12:22;;;;;;;5.55;4.20;;;;;;;13.10;65.26;63354.34;5023117;28;20219;-80
2023/12/02 09:15:08;;;;;;;4.53;4.13;;;;;;;13.20;64.56;63364.22;5025016;28;20414;-78
2023/12/02 09:18:07;;;;;;;5.55;3.72;;;;;;;13.18;65.81;63354.47;5027612;28;20278;-79
2023/12/02 09:20:43;;;;;;;4.47;4.05;;;;;;;13.27;64.80;63366.38;5016451;28;20260;-78
2023/12/02 09:23:11;;;;;;;3.53;2.70;;;;;;;13.41;63.80;63381.41;5023351;28;20226;-79
2023/12/02 09:25:40;;;;;;;6.05;3.65;;;;;;;13.59;63.79;63405.22;5026328;28;20244;-79
2023/12/02 09:28:18;;;;;;;5.20;3.10;;;;;;;13.78;64.37;63419.28;5022965;28;20233;-78
2023/12/02 09:31:06;;;;;;;4.75;3.63;;;;;;;14.12;62.85;63457.13;5024495;28;20206;-78
2023/12/02 09:33:34;;;;;;;5.55;2.30;;;;;;;14.37;59.81;63482.59;5022863;28;20558;-79
2023/12/02 09:36:04;;;;;;;4.30;2.47;;;;;;;14.64;60.26;63505.50;5022492;28;20218;-78
2023/12/02 09:38:32;;;;;;;8.40;3.25;;;;;;;14.77;58.66;63519.53;5021728;28;20237;-78
2023/12/02 09:41:22;;;;;;;2.67;2.47;;;;;;;14.90;56.27;63538.19;5024527;28;20240;-77
2023/12/02 09:44:15;;;;;;;6.70;2.97;;;;;;;14.88;55.32;63530.97;5016362;28;20368;-78
2023/12/02 09:46:56;;;;;;;4.35;2.55;;;;;;;14.98;55.11;63543.41;5023715;28;20261;-78
2023/12/02 09:49:42;;;;;;;4.43;2.67;;;;;;;15.16;56.43;63564.16;5022776;28;20210;-78
2023/12/02 09:52:26;;;;;;;5.88;2.70;;;;;;;15.30;54.28;63576.66;5018129;28;20237;-77
2023/12/02 09:55:03;;;;;;;1.92;1.83;;;;;;;15.43;54.52;63589.69;5024271;28;20199;-76
2023/12/02 09:57:34;;;;;;;8.73;3.22;;;;;;;15.53;55.72;63600.56;5014736;28;20236;-75
2023/12/02 10:00:09;;;;;;;5.45;2.33;;;;;;;15.46;52.51;63595.84;5007823;28;20214;-76
2023/12/02 10:02:47;;;;;;;7.72;3.10;;;;;;;15.70;53.12;63620.81;5018226;28;20221;-76
2023/12/02 10:05:16;;;;;;;9.70;2.90;;;;;;;15.83;53.91;63631.78;5012854;28;20496;-77
2023/12/02 10:08:03;;;;;;;3.72;3.28;;;;;;;15.82;52.33;63630.75;5018605;28;20244;-76
2023/12/02 10:10:38;;;;;;;3.35;3.05;;;;;;;15.75;52.55;63625.50;5023829;28;20221;-77
2023/12/02 10:13:18;;;;;;;6.32;3.33;;;;;;;15.58;52.87;63605.25;5018050;28;20222;-78
2023/12/02 10:15:48;;;;;;;8.55;3.30;;;;;;;15.57;52.70;63604.22;5017569;28;20260;-77
2023/12/02 10:18:22;;;;;;;7.72;3.25;;;;;;;15.65;53.01;63615.09;5023348;28;20538;-78
2023/12/02 10:21:01;;;;;;;5.70;3.60;;;;;;;15.57;54.27;63604.72;5021438;28;20206;-76
2023/12/02 10:23:33;;;;;;;4.57;3.08;;;;;;;15.70;54.59;63620.81;5026840;28;20293;-77
2023/12/02 10:26:06;;;;;;;4.10;3.08;;;;;;;15.65;52.89;63615.59;5020541;28;20234;-76
2023/12/02 10:28:47;;;;;;;8.45;2.90;;;;;;;15.62;52.42;63612.50;5025233;28;20234;-77
2023/12/02 10:31:24;;;;;;;6.80;3.33;;;;;;;15.52;52.39;63596.97;5018071;28;20198;-77
2023/12/02 10:34:02;;;;;;;4.80;2.47;;;;;;;15.53;51.35;63597.50;5026409;28;20255;-77
2023/12/02 10:36:32;;;;;;;3.92;3.22;;;;;;;15.53;52.89;63594.94;5015024;28;20194;-77
2023/12/02 10:39:09;;;;;;;6.97;3.78;;;;;;;15.50;53.88;63594.38;5017723;28;20262;-78
2023/12/02 10:41:44;;;;;;;11.60;4.20;;;;;;;15.30;54.51;63576.66;5025103;28;20408;-76
2023/12/02 10:44:14;;;;;;;14.50;4.82;;;;;;;15.49;55.64;63593.84;5023660;28;20202;-77
2023/12/02 10:46:43;;;;;;;9.90;4.95;;;;;;;15.65;53.69;63609.97;5021378;28;20229;-77
2023/12/02 10:49:13;;;;;;;7.18;4.38;;;;;;;15.82;52.35;63628.16;5026737;28;20217;-78
2023/12/02 10:51:42;;;;;;;6.18;3.95;;;;;;;15.86;51.10;63634.34;5024934;28;20269;-77
2023/12/02 10:54:10;;;;;;;9.05;4.38;;;;;;;15.88;51.60;63642.09;5027124;28;20473;-77
2023/12/02 10:56:39;;;;;;;8.15;4.25;;;;;;;15.89;51.96;63637.50;5011443;28;20230;-77
2023/12/02 10:59:07;;;;;;;7.70;3.80;;;;;;;15.82;50.58;63627.66;5027119;28;20271;-77
2023/12/02 11:01:40;;;;;;;6.55;3.70;;;;;;;15.81;49.55;63632.25;5021504;28;20298;-76
2023/12/02 11:04:24;;;;;;;5.05;3.22;;;;;;;15.75;49.72;63622.94;5024383;28;20474;-76
2023/12/02 11:06:54;;;;;;;4.63;2.55;;;;;;;15.81;46.22;63629.16;5026127;28;20294;-77
2023/12/02 11:09:33;;;;;;;6.78;3.22;;;;;;;15.89;47.43;63638.00;5025334;28;20248;-77
2023/12/02 11:12:04;;;;;;;6.40;3.33;;;;;;;16.02;50.20;63648.97;5022040;28;20225;-78
2023/12/02 11:14:38;;;;;;;5.50;3.05;;;;;;;16.08;48.11;63654.69;5023823;28;20265;-78
2023/12/02 11:17:16;;;;;;;4.85;3.15;;;;;;;16.11;47.75;63660.88;5022385;28;20222;-78
2023/12/02 11:20:08;;;;;;;10.60;3.50;;;;;;;16.08;48.44;63662.91;5027166;28;20203;-79
2023/12/02 11:22:53;;;;;;;7.32;2.95;;;;;;;16.08;47.46;63657.75;5019698;28;20221;-79
2023/12/02 11:25:29;;;;;;;10.60;3.20;;;;;;;16.14;47.94;63671.19;5024628;28;20509;-79
2023/12/02 11:28:03;;;;;;;2.40;2.20;;;;;;;16.11;46.57;63662.94;5023973;28;20244;-78
2023/12/02 11:30:52;;;;;;;5.50;2.83;;;;;;;16.20;46.26;63672.31;5025666;28;20261;-78
2023/12/02 11:33:29;;;;;;;6.38;2.40;;;;;;;16.20;44.25;63672.31;5022896;28;20609;-79
2023/12/02 11:36:09;;;;;;;4.25;3.42;;;;;;;16.25;47.86;63677.50;5024998;28;20273;-78
2023/12/02 11:38:44;;;;;;;4.45;3.10;;;;;;;16.24;49.47;63675.94;5023421;28;20569;-77
2023/12/02 11:41:24;;;;;;;2.85;2.55;;;;;;;16.28;48.95;63680.59;5022341;28;20202;-78
2023/12/02 11:44:05;;;;;;;7.60;3.03;;;;;;;16.17;47.52;63669.69;5023412;28;20229;-78